Time;durP1;ratioP1;P1;durP2;ratioP2;P2;SDS_P1;SDS_P2;PMS_P1;PMS_P2;Temp;Humidity;BMP_temperature;BMP_pressure;BME280_temperature;BME280_humidity;BME280_pressure;Samples;Min_cycle;Max_cycle;Signal;HPM_P1;HPM_P2
2024/03/23 00:00:36;;;;;;;4.25;1.85;;;8.20;99.90;;;;;;5055244;28;20635;-57
2024/03/23 00:03:02;;;;;;;1.60;1.38;;;8.20;99.90;;;;;;5037365;28;20206;-57
2024/03/23 00:05:29;;;;;;;1.50;1.45;;;8.10;99.90;;;;;;5055222;28;20208;-57
2024/03/23 00:07:58;;;;;;;2.58;1.77;;;8.20;99.90;;;;;;5037060;28;20563;-57
2024/03/23 00:10:24;;;;;;;2.33;1.45;;;8.20;99.90;;;;;;5055027;28;20581;-57
2024/03/23 00:12:51;;;;;;;3.70;1.25;;;8.30;99.90;;;;;;5054982;28;20186;-57
2024/03/23 00:15:17;;;;;;;1.15;1.05;;;8.30;99.90;;;;;;5055018;28;20170;-57
2024/03/23 00:17:44;;;;;;;1.50;1.40;;;8.40;99.90;;;;;;5055237;28;20281;-57
2024/03/23 00:20:10;;;;;;;2.40;1.38;;;8.40;99.90;;;;;;5054803;28;20638;-57
2024/03/23 00:22:37;;;;;;;1.27;1.17;;;8.50;99.90;;;;;;5054876;28;20200;-57
2024/03/23 00:25:03;;;;;;;2.22;1.90;;;8.50;99.90;;;;;;5054770;28;20198;-56
2024/03/23 00:27:31;;;;;;;1.40;1.20;;;8.60;99.90;;;;;;5054848;28;20651;-56
2024/03/23 00:29:57;;;;;;;2.70;1.38;;;8.70;99.90;;;;;;5054822;28;20566;-56
2024/03/23 00:32:24;;;;;;;1.80;1.42;;;8.70;99.90;;;;;;5054976;28;20197;-56
2024/03/23 00:34:50;;;;;;;1.15;1.10;;;8.70;99.90;;;;;;5054755;28;20671;-56
2024/03/23 00:37:17;;;;;;;1.88;1.30;;;8.70;99.90;;;;;;5037035;28;20208;-56
2024/03/23 00:39:43;;;;;;;5.40;1.33;;;8.80;99.90;;;;;;5036461;28;20277;-56
2024/03/23 00:42:10;;;;;;;1.65;1.55;;;8.80;99.90;;;;;;5054656;28;20190;-56
2024/03/23 00:44:36;;;;;;;1.55;1.45;;;8.80;99.90;;;;;;5054537;28;20571;-56
2024/03/23 00:47:03;;;;;;;0.90;0.90;;;8.80;99.90;;;;;;5054592;28;20174;-57
2024/03/23 00:49:30;;;;;;;3.10;1.55;;;8.90;99.90;;;;;;5054386;28;20596;-57
2024/03/23 00:51:56;;;;;;;5.07;2.00;;;8.80;99.90;;;;;;5054292;28;20707;-57
2024/03/23 00:54:22;;;;;;;1.40;1.30;;;8.80;99.90;;;;;;5036103;28;20194;-57
2024/03/23 00:56:47;;;;;;;1.47;1.37;;;8.80;99.90;;;;;;5054379;28;20170;-57
2024/03/23 00:59:13;;;;;;;1.17;1.17;;;8.80;99.90;;;;;;5054010;28;20182;-57
2024/03/23 01:01:39;;;;;;;1.52;1.35;;;8.70;99.90;;;;;;5036421;28;20194;-57
2024/03/23 01:04:05;;;;;;;3.70;1.63;;;8.80;99.90;;;;;;5054180;28;20204;-57
2024/03/23 01:06:30;;;;;;;1.87;1.77;;;8.80;99.90;;;;;;5036009;28;20174;-57
2024/03/23 01:08:56;;;;;;;2.00;1.33;;;8.90;99.90;;;;;;5035338;28;20170;-57
2024/03/23 01:11:21;;;;;;;1.70;1.60;;;9.00;99.90;;;;;;5054006;28;20169;-57
2024/03/23 01:13:47;;;;;;;3.20;1.90;;;9.00;99.90;;;;;;5053923;28;20162;-57
2024/03/23 01:16:13;;;;;;;1.63;1.20;;;9.10;99.90;;;;;;5053929;28;20309;-57
2024/03/23 01:18:39;;;;;;;2.73;1.53;;;9.10;99.90;;;;;;5053649;28;20249;-57
2024/03/23 01:21:04;;;;;;;2.43;1.40;;;9.20;99.90;;;;;;5053881;28;20683;-57
2024/03/23 01:23:30;;;;;;;2.27;1.60;;;9.30;99.90;;;;;;5053729;28;20544;-56
2024/03/23 01:25:55;;;;;;;1.93;1.83;;;9.30;99.90;;;;;;5053695;28;20193;-56
2024/03/23 01:28:22;;;;;;;2.00;1.30;;;9.40;99.90;;;;;;5053740;28;20636;-57
2024/03/23 01:30:48;;;;;;;2.10;1.65;;;9.50;99.90;;;;;;5035677;28;20691;-56
2024/03/23 01:33:14;;;;;;;1.45;1.30;;;9.60;99.90;;;;;;5053558;28;20216;-57
2024/03/23 01:35:39;;;;;;;4.90;1.43;;;9.70;99.90;;;;;;5053581;28;20170;-57
2024/03/23 01:38:05;;;;;;;1.97;1.87;;;9.80;99.90;;;;;;5053361;28;20447;-57
2024/03/23 01:40:32;;;;;;;1.57;1.47;;;9.80;99.90;;;;;;5053596;28;20288;-54
2024/03/23 01:42:58;;;;;;;1.45;1.13;;;10.00;99.90;;;;;;5053605;28;20504;-57
2024/03/23 01:45:24;;;;;;;3.55;1.50;;;10.10;99.90;;;;;;5053351;28;20275;-57
2024/03/23 01:47:52;;;;;;;2.27;1.97;;;10.30;99.80;;;;;;5053373;28;20171;-57
2024/03/23 01:50:17;;;;;;;2.10;1.83;;;10.40;99.70;;;;;;5053484;28;20205;-57
2024/03/23 01:52:44;;;;;;;3.67;1.80;;;10.40;99.70;;;;;;5035340;28;20252;-57
2024/03/23 01:55:09;;;;;;;4.60;1.90;;;10.50;99.30;;;;;;5053136;28;20227;-57
2024/03/23 01:57:35;;;;;;;5.17;2.00;;;10.70;98.90;;;;;;5053132;28;20178;-57
2024/03/23 02:00:01;;;;;;;2.50;2.30;;;10.80;98.30;;;;;;5035002;28;20243;-57
2024/03/23 02:02:26;;;;;;;3.77;1.73;;;11.00;98.30;;;;;;5053082;28;20276;-57
2024/03/23 02:04:52;;;;;;;1.63;1.50;;;11.10;97.90;;;;;;5052965;28;20190;-57
2024/03/23 02:07:18;;;;;;;1.90;1.80;;;11.20;98.60;;;;;;5035060;28;20205;-57
2024/03/23 02:09:45;;;;;;;3.90;2.03;;;11.30;98.10;;;;;;5052662;28;20162;-56
2024/03/23 02:12:11;;;;;;;2.80;2.60;;;11.40;97.80;;;;;;5034511;28;20194;-55
2024/03/23 02:14:37;;;;;;;1.83;1.73;;;11.50;97.70;;;;;;5052466;28;20780;-56
2024/03/23 02:17:04;;;;;;;9.63;2.60;;;11.60;97.80;;;;;;5050868;28;20926;-58
2024/03/23 02:19:30;;;;;;;4.70;2.37;;;11.70;97.80;;;;;;5051847;28;20488;-55
2024/03/23 02:21:56;;;;;;;2.60;1.83;;;11.70;97.30;;;;;;5051861;28;20194;-55
2024/03/23 02:24:22;;;;;;;2.40;2.10;;;11.80;97.40;;;;;;5033761;28;20448;-53
2024/03/23 02:26:48;;;;;;;2.60;2.40;;;12.00;97.40;;;;;;5033848;28;20799;-54
2024/03/23 02:29:14;;;;;;;1.93;1.77;;;12.10;97.00;;;;;;5051957;28;20413;-56
2024/03/23 02:31:40;;;;;;;3.03;2.27;;;12.20;96.50;;;;;;5052074;28;20332;-56
2024/03/23 02:34:06;;;;;;;2.07;1.93;;;12.30;96.40;;;;;;5051981;28;20409;-55
2024/03/23 02:36:32;;;;;;;2.23;2.00;;;12.30;96.50;;;;;;5051985;28;20405;-56
2024/03/23 02:38:58;;;;;;;2.23;2.10;;;12.40;96.50;;;;;;5017446;28;20640;-56
2024/03/23 02:41:23;;;;;;;1.97;1.77;;;12.40;99.90;;;;;;5051932;28;20397;-57
2024/03/23 02:43:53;;;;;;;3.57;2.27;;;12.30;96.20;;;;;;5051807;28;20782;-57
2024/03/23 02:46:19;;;;;;;2.70;2.50;;;12.40;96.20;;;;;;5051907;28;20281;-56
2024/03/23 02:48:48;;;;;;;4.00;2.57;;;12.40;96.10;;;;;;5051370;28;20866;-53
2024/03/23 02:51:14;;;;;;;4.87;2.10;;;12.40;95.80;;;;;;5051583;28;20945;-56
2024/03/23 02:53:39;;;;;;;2.17;1.97;;;12.40;95.70;;;;;;5051717;28;20507;-56
2024/03/23 02:56:06;;;;;;;3.13;2.83;;;12.40;95.60;;;;;;5051690;28;20600;-56
2024/03/23 02:58:32;;;;;;;1.90;1.60;;;12.30;95.50;;;;;;5051964;28;20174;-55
2024/03/23 03:00:58;;;;;;;2.50;2.20;;;12.30;95.80;;;;;;5051382;28;20466;-53
2024/03/23 03:03:24;;;;;;;2.50;1.73;;;12.30;96.00;;;;;;5051330;28;20193;-56
2024/03/23 03:05:55;;;;;;;4.60;2.47;;;12.10;95.80;;;;;;5033394;28;20582;-57
2024/03/23 03:08:21;;;;;;;1.47;1.37;;;12.00;96.10;;;;;;5051829;28;20475;-55
2024/03/23 03:10:47;;;;;;;3.43;2.20;;;11.90;96.30;;;;;;5051562;28;20434;-56
2024/03/23 03:13:14;;;;;;;4.77;2.23;;;12.00;96.30;;;;;;5051567;28;20277;-56
2024/03/23 03:15:42;;;;;;;2.60;2.40;;;11.90;96.30;;;;;;5033828;28;20185;-56
2024/03/23 03:18:08;;;;;;;2.67;2.43;;;11.80;96.60;;;;;;5051278;28;20413;-56
2024/03/23 03:20:34;;;;;;;1.73;1.40;;;11.80;96.60;;;;;;5051618;28;20409;-54
2024/03/23 03:23:00;;;;;;;2.03;1.90;;;11.80;96.60;;;;;;5051700;28;20190;-56
2024/03/23 03:25:25;;;;;;;3.63;2.97;;;11.70;96.60;;;;;;5051629;28;20918;-56
2024/03/23 03:27:51;;;;;;;2.83;2.50;;;11.80;96.70;;;;;;5051496;28;20687;-57
2024/03/23 03:30:17;;;;;;;3.47;2.93;;;11.80;96.70;;;;;;5051185;28;20224;-57
2024/03/23 03:32:43;;;;;;;2.83;2.57;;;11.80;96.60;;;;;;5051278;28;20189;-57
2024/03/23 03:35:08;;;;;;;4.27;2.50;;;11.80;96.70;;;;;;5051641;28;20174;-57
2024/03/23 03:37:34;;;;;;;3.33;2.53;;;11.80;96.70;;;;;;5051556;28;20470;-57
2024/03/23 03:40:00;;;;;;;2.23;1.80;;;11.70;96.60;;;;;;5050083;28;20264;-57
2024/03/23 03:42:25;;;;;;;3.53;2.03;;;11.70;96.90;;;;;;5051802;28;20198;-57
2024/03/23 03:44:52;;;;;;;2.10;2.00;;;11.70;97.00;;;;;;5051354;28;20186;-57
2024/03/23 03:47:18;;;;;;;2.63;2.00;;;11.60;96.90;;;;;;5051406;28;20228;-57
2024/03/23 03:49:43;;;;;;;4.37;2.07;;;11.50;97.20;;;;;;5051156;28;20409;-56
2024/03/23 03:52:09;;;;;;;2.83;2.13;;;11.40;97.40;;;;;;5051260;28;20736;-57
2024/03/23 03:54:34;;;;;;;4.80;2.77;;;11.30;97.50;;;;;;5050899;28;20170;-55
2024/03/23 03:57:00;;;;;;;3.87;2.30;;;11.30;97.70;;;;;;5051375;28;20166;-56
2024/03/23 03:59:26;;;;;;;1.93;1.83;;;11.20;97.90;;;;;;5051176;28;20635;-57
2024/03/23 04:01:52;;;;;;;2.70;2.50;;;11.20;97.90;;;;;;5051231;28;20663;-57
2024/03/23 04:04:17;;;;;;;3.47;3.17;;;11.20;98.10;;;;;;5051265;28;20952;-57
2024/03/23 04:06:44;;;;;;;3.40;2.17;;;11.30;98.30;;;;;;5051354;28;20167;-57
2024/03/23 04:09:10;;;;;;;4.27;1.83;;;11.30;98.20;;;;;;5050915;28;20253;-56
2024/03/23 04:11:35;;;;;;;3.70;2.47;;;11.30;98.40;;;;;;5051289;28;20856;-56
2024/03/23 04:14:01;;;;;;;5.30;3.27;;;11.40;98.30;;;;;;5033351;28;20428;-57
2024/03/23 04:16:35;;;;;;;16.03;2.97;;;11.40;99.10;;;;;;5051086;28;20170;-57
2024/03/23 04:19:01;;;;;;;2.60;2.40;;;11.40;99.90;;;;;;5050998;28;20670;-57
2024/03/23 04:21:27;;;;;;;3.40;2.93;;;11.50;99.90;;;;;;5051125;28;20500;-57
2024/03/23 04:23:52;;;;;;;8.60;3.00;;;11.40;99.90;;;;;;5051180;28;20959;-57
2024/03/23 04:26:18;;;;;;;3.17;2.93;;;11.40;99.90;;;;;;5051059;28;20506;-57
2024/03/23 04:28:44;;;;;;;3.83;3.00;;;11.40;99.90;;;;;;5050987;28;20175;-57
2024/03/23 04:31:10;;;;;;;3.43;2.80;;;11.20;99.90;;;;;;5051005;28;20552;-56
2024/03/23 04:33:35;;;;;;;3.05;2.78;;;11.20;99.90;;;;;;5051077;28;20201;-56
2024/03/23 04:36:01;;;;;;;3.33;3.03;;;10.80;99.90;;;;;;5051052;28;20198;-57
2024/03/23 04:38:27;;;;;;;3.70;2.20;;;10.80;99.90;;;;;;5050782;28;20559;-56
2024/03/23 04:40:57;;;;;;;2.63;2.17;;;10.60;99.90;;;;;;5050890;28;20213;-56
2024/03/23 04:43:23;;;;;;;2.47;1.93;;;10.50;99.90;;;;;;5033983;28;20293;-56
2024/03/23 04:45:48;;;;;;;7.50;2.90;;;10.60;99.90;;;;;;5036502;28;20543;-56
2024/03/23 04:48:14;;;;;;;3.40;2.40;;;10.50;99.90;;;;;;5054451;28;20158;-57
2024/03/23 04:50:40;;;;;;;3.50;3.00;;;10.50;99.90;;;;;;5054338;28;20400;-56
2024/03/23 04:53:07;;;;;;;4.70;3.40;;;10.60;99.90;;;;;;5036359;28;20218;-56
2024/03/23 04:55:32;;;;;;;3.25;3.05;;;10.40;99.90;;;;;;5054431;28;20174;-56
2024/03/23 04:57:58;;;;;;;5.00;4.57;;;10.30;99.90;;;;;;5054380;28;20170;-56
2024/03/23 05:00:24;;;;;;;5.37;3.60;;;10.40;99.90;;;;;;5054085;28;20174;-56
2024/03/23 05:02:50;;;;;;;7.78;4.72;;;10.40;99.90;;;;;;5054526;28;20733;-56
2024/03/23 05:05:16;;;;;;;4.97;4.50;;;10.40;99.90;;;;;;5054188;28;20202;-56
2024/03/23 05:07:42;;;;;;;4.90;4.40;;;10.40;99.90;;;;;;5036416;28;20174;-56
2024/03/23 05:10:13;;;;;;;6.73;5.73;;;10.50;99.90;;;;;;5036065;28;20174;-57
2024/03/23 05:12:39;;;;;;;6.23;5.07;;;10.50;99.90;;;;;;5036953;28;20264;-57
2024/03/23 05:15:06;;;;;;;4.23;3.93;;;10.60;99.90;;;;;;5054009;28;20954;-56
2024/03/23 05:17:32;;;;;;;7.35;6.30;;;10.40;99.90;;;;;;5053979;28;20427;-56
2024/03/23 05:19:58;;;;;;;8.52;6.45;;;10.10;99.90;;;;;;5053891;28;20182;-56
2024/03/23 05:22:24;;;;;;;7.47;5.77;;;10.20;99.90;;;;;;5035916;28;20250;-56
2024/03/23 05:24:50;;;;;;;6.30;5.13;;;10.20;99.90;;;;;;5053845;28;20229;-56
2024/03/23 05:27:16;;;;;;;7.10;5.30;;;10.20;99.90;;;;;;5053744;28;20201;-56
2024/03/23 05:29:41;;;;;;;6.23;5.63;;;10.00;99.90;;;;;;5053537;28;20170;-56
2024/03/23 05:32:07;;;;;;;8.30;5.50;;;10.00;99.90;;;;;;5053773;28;20189;-56
2024/03/23 05:34:33;;;;;;;4.80;4.17;;;9.80;99.90;;;;;;5053703;28;20582;-57
2024/03/23 05:36:59;;;;;;;7.63;4.90;;;9.80;99.90;;;;;;5053632;28;20855;-57
2024/03/23 05:39:25;;;;;;;6.50;4.70;;;9.90;99.90;;;;;;5053312;28;20444;-54
2024/03/23 05:41:51;;;;;;;8.73;5.50;;;9.90;99.90;;;;;;5053295;28;20202;-56
2024/03/23 05:44:18;;;;;;;6.30;4.70;;;9.80;99.90;;;;;;5053454;28;20200;-56
2024/03/23 05:46:48;;;;;;;5.20;4.70;;;9.70;99.90;;;;;;5053516;28;20542;-57
2024/03/23 05:49:14;;;;;;;9.43;5.07;;;9.70;99.90;;;;;;5053264;28;20548;-57
2024/03/23 05:51:39;;;;;;;3.97;3.63;;;9.80;99.90;;;;;;5035417;28;20267;-56
2024/03/23 05:56:31;;;;;;;4.33;3.93;;;9.80;99.90;;;;;;5054794;22;20305;-53
2024/03/23 05:58:56;;;;;;;6.63;4.10;;;9.70;99.90;;;;;;5032811;28;20167;-52
2024/03/23 06:01:22;;;;;;;6.63;4.50;;;9.60;99.90;;;;;;5033324;28;20592;-52
2024/03/23 06:03:47;;;;;;;5.33;4.20;;;9.60;99.90;;;;;;5033257;28;20195;-49
2024/03/23 06:06:13;;;;;;;5.80;4.63;;;9.40;99.90;;;;;;5033197;28;20285;-51
2024/03/23 06:08:38;;;;;;;6.50;4.77;;;9.60;99.90;;;;;;5032915;28;20356;-55
2024/03/23 06:11:07;;;;;;;4.83;3.90;;;9.60;99.90;;;;;;5033102;28;20232;-54
2024/03/23 06:13:34;;;;;;;8.27;5.70;;;9.40;99.90;;;;;;5032994;28;20175;-53
2024/03/23 06:16:01;;;;;;;4.22;3.78;;;9.40;99.90;;;;;;5033152;28;20576;-51
2024/03/23 06:18:27;;;;;;;9.60;3.90;;;9.50;99.90;;;;;;5032842;28;20680;-54
2024/03/23 06:20:53;;;;;;;5.88;4.20;;;9.50;99.90;;;;;;5032741;28;20266;-52
2024/03/23 06:23:20;;;;;;;5.70;4.00;;;9.40;99.90;;;;;;5032837;28;20610;-52
2024/03/23 06:25:47;;;;;;;7.03;5.03;;;9.40;99.90;;;;;;5032691;28;20461;-49
2024/03/23 06:28:13;;;;;;;5.90;4.95;;;9.30;99.90;;;;;;5032684;28;20171;-54
2024/03/23 06:30:39;;;;;;;5.00;4.38;;;9.20;99.90;;;;;;5032764;28;20179;-54
2024/03/23 06:33:08;;;;;;;7.47;5.37;;;9.30;99.90;;;;;;5032654;28;20201;-52
2024/03/23 06:35:34;;;;;;;5.22;4.50;;;9.30;99.90;;;;;;5032618;28;20684;-55
2024/03/23 06:37:59;;;;;;;5.00;4.20;;;9.50;99.90;;;;;;5032623;28;20229;-54
2024/03/23 06:40:25;;;;;;;4.77;4.20;;;9.40;99.90;;;;;;5032302;28;20224;-48
2024/03/23 06:42:51;;;;;;;8.23;6.00;;;9.30;99.90;;;;;;5052177;28;20269;-55
2024/03/23 06:45:22;;;;;;;6.20;5.23;;;9.40;99.90;;;;;;5052196;28;20213;-52
2024/03/23 06:47:48;;;;;;;5.15;4.65;;;9.60;99.90;;;;;;5052256;28;20205;-50
2024/03/23 06:50:14;;;;;;;5.38;3.80;;;9.60;99.90;;;;;;5052269;28;20663;-52
2024/03/23 06:52:42;;;;;;;3.92;3.63;;;9.70;99.90;;;;;;5052303;28;20324;-53
2024/03/23 06:55:08;;;;;;;4.67;3.40;;;9.70;99.90;;;;;;5052048;28;20729;-54
2024/03/23 06:57:34;;;;;;;4.53;3.42;;;9.70;99.90;;;;;;5052341;28;20420;-52
2024/03/23 06:59:59;;;;;;;5.00;4.03;;;9.80;99.90;;;;;;5051892;28;20177;-54
2024/03/23 07:02:25;;;;;;;4.70;3.80;;;9.90;99.90;;;;;;5052109;28;20167;-54
2024/03/23 07:04:50;;;;;;;5.40;4.90;;;9.90;99.90;;;;;;5051903;28;20247;-50
2024/03/23 07:07:16;;;;;;;8.80;4.87;;;9.90;99.90;;;;;;5051564;28;20166;-55
2024/03/23 07:09:42;;;;;;;5.43;3.97;;;9.90;99.90;;;;;;5051622;28;20266;-52
2024/03/23 07:12:08;;;;;;;4.43;3.73;;;9.80;99.90;;;;;;5052199;28;20202;-53
2024/03/23 07:14:33;;;;;;;4.50;3.90;;;9.80;99.90;;;;;;5051843;28;20425;-52
2024/03/23 07:16:59;;;;;;;5.07;4.53;;;9.70;99.90;;;;;;5051902;28;20713;-55
2024/03/23 07:19:24;;;;;;;3.70;2.93;;;9.80;99.90;;;;;;5051626;28;20170;-53
2024/03/23 07:21:50;;;;;;;4.03;2.83;;;9.80;99.90;;;;;;5051885;28;20221;-55
2024/03/23 07:24:16;;;;;;;3.97;1.90;;;9.50;99.90;;;;;;5051547;28;20166;-55
2024/03/23 07:26:41;;;;;;;2.60;2.40;;;9.40;99.90;;;;;;5051980;28;20200;-52
2024/03/23 07:29:07;;;;;;;2.00;1.80;;;9.20;99.90;;;;;;5051478;28;20170;-55
2024/03/23 07:31:33;;;;;;;0.90;0.80;;;9.10;99.90;;;;;;5051709;28;20174;-55
2024/03/23 07:33:58;;;;;;;1.33;1.23;;;9.10;99.90;;;;;;5051826;28;20201;-55
2024/03/23 07:36:24;;;;;;;1.23;1.13;;;9.00;99.90;;;;;;5046327;28;20579;-55
2024/03/23 07:38:50;;;;;;;0.80;0.80;;;8.80;99.90;;;;;;5051237;28;20233;-54
2024/03/23 07:41:19;;;;;;;0.83;0.83;;;8.70;99.90;;;;;;5051900;28;20766;-55
2024/03/23 07:43:46;;;;;;;1.30;1.20;;;8.60;99.90;;;;;;5051564;28;20178;-55
2024/03/23 07:46:12;;;;;;;0.77;0.77;;;8.10;99.90;;;;;;5051416;28;20702;-54
2024/03/23 07:48:39;;;;;;;1.02;0.70;;;8.00;99.90;;;;;;5051256;28;20170;-55
2024/03/23 07:51:15;;;;;;;1.05;0.70;;;7.90;99.90;;;;;;5051427;28;20182;-55
2024/03/23 07:53:44;;;;;;;0.77;0.77;;;7.80;99.90;;;;;;5051730;28;20166;-56
2024/03/23 07:56:10;;;;;;;0.60;0.60;;;7.60;99.90;;;;;;5051507;28;20227;-55
2024/03/23 07:58:36;;;;;;;0.60;0.60;;;7.70;99.90;;;;;;5051170;28;20632;-55
2024/03/23 08:01:20;;;;;;;0.40;0.40;;;7.80;99.90;;;;;;5051421;28;20182;-53
2024/03/23 08:03:46;;;;;;;3.75;0.60;;;7.80;99.90;;;;;;5051317;28;20170;-53
2024/03/23 08:06:20;;;;;;;0.50;0.50;;;7.80;99.90;;;;;;5051258;28;20732;-54
2024/03/23 08:08:47;;;;;;;0.40;0.40;;;7.60;99.90;;;;;;5051298;28;20178;-54
2024/03/23 08:11:13;;;;;;;0.73;0.68;;;7.50;99.90;;;;;;5051673;28;20640;-55
2024/03/23 08:13:41;;;;;;;1.35;0.50;;;7.50;99.90;;;;;;5051234;28;20265;-55
2024/03/23 08:16:08;;;;;;;0.40;0.40;;;7.50;99.90;;;;;;5051162;28;20252;-55
2024/03/23 08:18:34;;;;;;;0.45;0.40;;;7.50;99.90;;;;;;5052223;28;20276;-56
2024/03/23 08:21:02;;;;;;;0.70;0.70;;;7.30;99.90;;;;;;5055122;28;20205;-53
2024/03/23 08:23:29;;;;;;;1.33;0.60;;;7.10;99.90;;;;;;5055026;28;20418;-54
2024/03/23 08:25:59;;;;;;;1.05;0.77;;;7.10;99.90;;;;;;5055072;28;20682;-54
2024/03/23 08:28:25;;;;;;;0.73;0.60;;;7.50;99.90;;;;;;5054795;28;20201;-53
2024/03/23 08:30:51;;;;;;;2.35;1.10;;;7.70;99.30;;;;;;5054696;28;20205;-54
2024/03/23 08:33:17;;;;;;;2.85;1.48;;;8.00;98.50;;;;;;5055059;28;20612;-53
2024/03/23 08:35:52;;;;;;;1.00;0.90;;;8.90;97.30;;;;;;5054759;28;20236;-50
2024/03/23 08:38:17;;;;;;;1.43;1.13;;;10.10;93.80;;;;;;5054730;28;20182;-54
2024/03/23 08:40:43;;;;;;;1.13;1.03;;;10.80;93.60;;;;;;5054672;28;20409;-49
2024/03/23 08:43:09;;;;;;;1.53;1.00;;;10.60;91.70;;;;;;5054704;28;20644;-46
2024/03/23 08:45:34;;;;;;;1.10;0.97;;;11.10;90.70;;;;;;5054914;28;20194;-53
2024/03/23 08:48:00;;;;;;;1.23;1.13;;;11.90;89.30;;;;;;5054516;28;20207;-54
2024/03/23 08:50:25;;;;;;;1.43;1.20;;;12.90;90.60;;;;;;5054319;28;20730;-53
2024/03/23 08:52:51;;;;;;;2.23;0.70;;;14.30;81.70;;;;;;5054458;28;20247;-50
2024/03/23 08:55:17;;;;;;;1.50;0.87;;;15.80;77.50;;;;;;5054248;28;20233;-54
2024/03/23 08:57:43;;;;;;;2.10;0.83;;;16.70;71.90;;;;;;5054395;28;20927;-55
2024/03/23 09:00:11;;;;;;;4.27;0.63;;;18.30;68.90;;;;;;5053972;28;20411;-54
2024/03/23 09:02:37;;;;;;;1.70;1.60;;;19.50;66.30;;;;;;5054381;28;20412;-55
2024/03/23 09:05:04;;;;;;;2.57;1.17;;;19.70;55.00;;;;;;5054162;28;20460;-54
2024/03/23 09:07:31;;;;;;;2.30;1.10;;;20.20;60.20;;;;;;5054230;28;20429;-55
2024/03/23 09:09:57;;;;;;;1.10;0.87;;;20.20;56.10;;;;;;5053929;28;20400;-54
2024/03/23 09:12:24;;;;;;;1.13;0.90;;;20.00;54.60;;;;;;5054072;28;20906;-55
2024/03/23 09:14:50;;;;;;;1.70;1.07;;;19.50;55.20;;;;;;5054006;28;20523;-51
2024/03/23 09:17:16;;;;;;;2.50;1.17;;;19.90;53.90;;;;;;5053788;28;20914;-55
2024/03/23 09:19:42;;;;;;;1.60;1.23;;;19.40;53.20;;;;;;5053342;28;20437;-54
2024/03/23 09:22:07;;;;;;;2.80;1.37;;;19.30;53.80;;;;;;5048648;28;20201;-55
2024/03/23 09:24:33;;;;;;;2.93;1.10;;;19.30;51.50;;;;;;5053746;28;20194;-56
2024/03/23 09:26:59;;;;;;;3.50;1.33;;;18.60;50.80;;;;;;5053882;28;20410;-55
2024/03/23 09:29:24;;;;;;;2.60;0.90;;;18.70;52.30;;;;;;5053108;28;20609;-54
2024/03/23 09:31:50;;;;;;;1.50;1.40;;;19.10;49.90;;;;;;5053769;28;20224;-53
2024/03/23 09:34:15;;;;;;;2.30;1.37;;;18.20;50.00;;;;;;5053642;28;20253;-56
2024/03/23 09:36:41;;;;;;;2.60;1.77;;;16.60;51.30;;;;;;5050684;28;20668;-53
2024/03/23 09:39:09;;;;;;;3.70;1.27;;;15.90;51.60;;;;;;5033164;28;20174;-55
2024/03/23 09:41:35;;;;;;;2.90;1.57;;;15.20;55.20;;;;;;5033627;28;20181;-53
2024/03/23 09:44:02;;;;;;;1.67;1.10;;;14.40;56.70;;;;;;5034078;28;21095;-55
2024/03/23 09:46:28;;;;;;;3.43;3.03;;;14.40;58.50;;;;;;5033392;28;20461;-55
2024/03/23 09:48:56;;;;;;;3.27;1.47;;;14.70;57.20;;;;;;5033195;28;20915;-54
2024/03/23 09:51:22;;;;;;;1.43;1.20;;;14.10;56.90;;;;;;5033477;28;20816;-55
2024/03/23 09:53:49;;;;;;;6.03;1.33;;;13.80;57.90;;;;;;5033408;28;20448;-55
2024/03/23 09:56:17;;;;;;;4.20;2.40;;;13.20;57.50;;;;;;5033106;28;20210;-55
2024/03/23 09:58:42;;;;;;;5.00;1.97;;;12.80;60.20;;;;;;5032980;28;20421;-54
2024/03/23 10:01:09;;;;;;;1.70;1.33;;;12.40;61.30;;;;;;5033277;28;20406;-55
2024/03/23 10:03:46;;;;;;;3.53;2.40;;;13.10;62.10;;;;;;5033540;28;20171;-55
2024/03/23 10:06:12;;;;;;;3.57;1.73;;;14.70;61.30;;;;;;5033055;28;20614;-55
2024/03/23 10:08:38;;;;;;;2.53;1.60;;;15.40;58.10;;;;;;5032812;28;20497;-55
2024/03/23 10:11:18;;;;;;;7.40;1.63;;;16.20;57.10;;;;;;5033091;28;20706;-54
2024/03/23 10:13:46;;;;;;;3.50;1.80;;;16.80;55.80;;;;;;5033003;28;20417;-53
2024/03/23 10:16:11;;;;;;;2.80;1.67;;;17.30;54.30;;;;;;5032976;28;20435;-54
2024/03/23 10:18:38;;;;;;;3.43;1.50;;;17.50;53.50;;;;;;5032734;28;20412;-55
2024/03/23 10:21:08;;;;;;;5.03;1.80;;;17.60;52.70;;;;;;5033351;28;20184;-55
2024/03/23 10:23:34;;;;;;;4.17;1.80;;;18.00;53.60;;;;;;5032738;28;20412;-56
2024/03/23 10:26:21;;;;;;;1.60;1.50;;;17.90;50.00;;;;;;5032709;28;20472;-56
2024/03/23 10:29:11;;;;;;;3.83;1.90;;;17.90;49.60;;;;;;5032423;28;20404;-55
2024/03/23 10:31:37;;;;;;;4.23;1.80;;;17.90;48.00;;;;;;5033097;28;20448;-54
2024/03/23 10:34:03;;;;;;;5.93;1.97;;;16.30;50.20;;;;;;5032907;28;20444;-55
2024/03/23 10:36:30;;;;;;;3.20;2.77;;;16.20;49.30;;;;;;5032547;28;20471;-54
2024/03/23 10:38:58;;;;;;;6.93;1.50;;;16.00;49.50;;;;;;5032359;28;20412;-54
2024/03/23 10:41:27;;;;;;;4.77;2.07;;;15.70;51.70;;;;;;5031965;28;20416;-51
2024/03/23 10:43:55;;;;;;;3.93;1.80;;;15.50;51.70;;;;;;5030359;28;20910;-55
2024/03/23 10:46:21;;;;;;;2.20;1.17;;;14.80;52.70;;;;;;5031869;28;20461;-55
2024/03/23 10:48:47;;;;;;;3.37;2.70;;;14.80;51.60;;;;;;5031559;28;20512;-54
2024/03/23 10:51:14;;;;;;;3.20;1.87;;;14.70;51.80;;;;;;5032306;28;20178;-53
2024/03/23 10:53:40;;;;;;;3.47;1.80;;;14.30;52.90;;;;;;5032346;28;20195;-53
2024/03/23 10:56:07;;;;;;;4.67;1.73;;;13.90;53.60;;;;;;5032112;28;20893;-55
2024/03/23 10:58:42;;;;;;;1.83;1.33;;;13.20;53.50;;;;;;5030922;28;20609;-53
2024/03/23 11:01:12;;;;;;;2.80;2.10;;;12.80;53.80;;;;;;5028907;28;20431;-52
2024/03/23 11:03:40;;;;;;;2.40;1.83;;;11.70;55.60;;;;;;5032323;28;20943;-54
2024/03/23 11:06:07;;;;;;;2.70;1.80;;;11.20;59.40;;;;;;5032078;28;20523;-52
2024/03/23 11:08:34;;;;;;;2.73;2.20;;;11.00;60.80;;;;;;5031915;28;20472;-54
2024/03/23 11:11:21;;;;;;;1.50;1.40;;;10.70;61.10;;;;;;5032096;28;20417;-51
2024/03/23 11:13:51;;;;;;;3.95;2.97;;;10.20;63.10;;;;;;5031975;28;20418;-51
2024/03/23 11:16:17;;;;;;;5.88;1.85;;;9.00;68.50;;;;;;5031983;28;20193;-51
2024/03/23 11:18:44;;;;;;;6.70;2.63;;;8.50;73.70;;;;;;5031814;28;20187;-51
2024/03/23 11:21:11;;;;;;;5.22;2.10;;;8.50;74.50;;;;;;5031976;28;20185;-51
2024/03/23 11:23:37;;;;;;;2.67;1.33;;;8.40;77.00;;;;;;5030576;28;20674;-55
2024/03/23 11:26:06;;;;;;;3.87;1.87;;;8.20;78.70;;;;;;5031711;28;20218;-52
2024/03/23 11:28:32;;;;;;;1.85;1.45;;;7.60;78.70;;;;;;5031692;28;20416;-48
2024/03/23 11:30:57;;;;;;;4.23;1.47;;;7.40;80.90;;;;;;5032051;28;20769;-49
2024/03/23 11:33:23;;;;;;;1.77;0.97;;;7.30;82.50;;;;;;5031695;28;20191;-52
2024/03/23 11:35:49;;;;;;;5.70;1.77;;;7.20;85.00;;;;;;5031754;28;20682;-55
2024/03/23 11:38:18;;;;;;;2.13;1.90;;;7.20;87.30;;;;;;5031626;28;20172;-52
2024/03/23 11:40:49;;;;;;;7.38;2.58;;;7.00;90.10;;;;;;5031518;28;20181;-51
2024/03/23 11:43:20;;;;;;;2.65;1.15;;;7.00;90.80;;;;;;5031653;28;20174;-53
2024/03/23 11:45:54;;;;;;;1.95;1.73;;;6.90;91.10;;;;;;5031495;28;20334;-50
2024/03/23 11:48:22;;;;;;;2.20;1.30;;;6.80;91.60;;;;;;5031525;28;20542;-49
2024/03/23 11:50:50;;;;;;;1.88;1.38;;;6.70;92.10;;;;;;5031408;28;20172;-50
2024/03/23 11:53:17;;;;;;;0.98;0.98;;;6.50;92.90;;;;;;5034374;28;20177;-52
2024/03/23 11:55:54;;;;;;;1.35;1.25;;;6.10;93.70;;;;;;5097888;22;20219;-61
2024/03/23 11:58:24;;;;;;;1.30;1.20;;;6.10;95.00;;;;;;5074679;28;20187;-62
2024/03/23 12:00:57;;;;;;;1.95;1.85;;;6.10;95.10;;;;;;5074989;28;20653;-62
2024/03/23 12:03:28;;;;;;;2.88;2.22;;;6.30;95.60;;;;;;5075506;28;20211;-63
2024/03/23 12:05:54;;;;;;;8.13;4.40;;;6.70;94.50;;;;;;5075261;28;20616;-62
2024/03/23 12:08:34;;;;;;;0.90;0.90;;;7.20;93.40;;;;;;5075121;28;20255;-63
2024/03/23 12:11:07;;;;;;;2.00;1.20;;;7.40;93.30;;;;;;5075388;28;20170;-62
2024/03/23 12:13:33;;;;;;;1.52;1.42;;;7.70;92.60;;;;;;5075175;28;20638;-63
2024/03/23 12:16:18;;;;;;;1.75;1.50;;;7.90;92.40;;;;;;5075200;28;20208;-63
2024/03/23 12:18:45;;;;;;;4.10;1.50;;;8.00;92.10;;;;;;5075165;28;20658;-62
2024/03/23 12:21:11;;;;;;;5.25;1.60;;;7.80;92.80;;;;;;5075156;28;20199;-62
2024/03/23 12:23:39;;;;;;;7.68;1.17;;;7.40;93.20;;;;;;5075274;28;20181;-62
2024/03/23 12:26:06;;;;;;;5.50;1.40;;;7.00;94.30;;;;;;5074674;28;20647;-63
2024/03/23 12:28:32;;;;;;;4.60;1.73;;;7.40;93.60;;;;;;5074579;28;20279;-62
2024/03/23 12:30:57;;;;;;;3.65;2.47;;;7.90;93.50;;;;;;5074693;28;20522;-62
2024/03/23 12:33:23;;;;;;;2.83;1.87;;;8.10;92.60;;;;;;5074563;28;20176;-62
2024/03/23 12:35:50;;;;;;;1.40;1.30;;;8.30;93.10;;;;;;5074744;28;20292;-62
2024/03/23 12:38:17;;;;;;;1.48;1.23;;;8.50;93.30;;;;;;5074609;28;20188;-63
2024/03/23 12:40:47;;;;;;;6.68;2.10;;;8.70;90.90;;;;;;5074565;28;20213;-63
2024/03/23 12:43:13;;;;;;;16.13;7.28;;;8.90;91.30;;;;;;5074780;28;20257;-62
2024/03/23 12:45:38;;;;;;;4.13;2.60;;;9.00;90.10;;;;;;5074520;28;20311;-63
2024/03/23 12:48:04;;;;;;;3.87;1.60;;;8.90;90.90;;;;;;5074488;28;20174;-63
2024/03/23 12:50:30;;;;;;;2.07;1.90;;;9.00;91.20;;;;;;5074462;28;20177;-63
2024/03/23 12:52:55;;;;;;;4.67;3.03;;;9.10;90.50;;;;;;5074599;28;20223;-63